Airport View

Enter AWOS ICAO identifier for current METAR.

ex. KFNL

KMOR 051355Z AUTO VRB06KT 10SM OVC006 22/21 A3008 RMK A01

5 Aug 2020 14:17

Frequency: 126.725

Phone: 423-587-5886

Other Area AWOS: KGKT - KGCY - KDKX - K0VG

TAF AMD KTYS 051400Z 0514/0612 03003KT P6SM SCT080 TEMPO 0514/0515 P6SM BKN006 FM051800 29004KT P6SM VCTS SCT080CB FM060200 03004KT P6SM FEW070 FM061100 00000KT 4SM BR BKN045